createdAt,value
2022-08-18T00:05:48.527Z,757
2022-08-18T00:13:36.750Z,705
2022-08-18T00:21:32.852Z,795
2022-08-18T00:29:18.656Z,859
2022-08-18T00:37:05.660Z,729
2022-08-18T00:44:57.134Z,823
2022-08-18T00:52:52.305Z,913
2022-08-18T01:00:26.692Z,885
2022-08-18T01:08:13.432Z,957
2022-08-18T01:16:53.256Z,943
2022-08-18T01:24:35.706Z,971
2022-08-18T01:32:12.580Z,899
2022-08-18T01:41:35.649Z,1208
2022-08-18T01:49:01.743Z,1287
2022-08-18T01:56:50.306Z,1379
2022-08-18T02:05:09.572Z,1314
2022-08-18T02:13:12.950Z,1279
2022-08-18T02:21:06.768Z,1202
2022-08-18T02:28:43.683Z,1215
2022-08-18T02:36:23.926Z,1081
2022-08-18T02:44:15.300Z,931
2022-08-18T02:51:48.101Z,899
2022-08-18T02:59:39.251Z,977
2022-08-18T03:07:26.149Z,920
2022-08-18T03:14:56.884Z,874
2022-08-18T03:23:05.699Z,868
2022-08-18T03:31:08.623Z,801
2022-08-18T03:38:38.694Z,633
2022-08-18T03:46:39.595Z,803
2022-08-18T03:54:17.129Z,836
2022-08-18T04:02:00.643Z,835
2022-08-18T04:09:45.909Z,892
2022-08-18T04:17:25.600Z,983
2022-08-18T04:25:32.811Z,878
2022-08-18T04:33:09.215Z,868
2022-08-18T04:40:42.141Z,863
2022-08-18T04:48:09.965Z,1127
2022-08-18T04:56:40.979Z,792
2022-08-18T05:04:26.637Z,1042
2022-08-18T05:11:59.169Z,1078
2022-08-18T05:20:06.894Z,876
2022-08-18T05:27:54.106Z,801
2022-08-18T05:36:05.669Z,672
2022-08-18T05:43:36.759Z,798
2022-08-18T05:51:23.843Z,715
2022-08-18T05:59:07.040Z,792
2022-08-18T06:06:49.546Z,811
2022-08-18T06:14:39.666Z,625
2022-08-18T06:22:13.688Z,662
2022-08-18T06:30:07.750Z,730
2022-08-18T06:37:43.681Z,717
2022-08-18T06:45:46.252Z,610
2022-08-18T06:53:37.452Z,604
2022-08-18T07:01:32.796Z,685
2022-08-18T07:09:11.462Z,650
2022-08-18T07:17:14.500Z,698
2022-08-18T07:25:22.186Z,672
2022-08-18T07:33:01.799Z,727
2022-08-18T07:41:02.290Z,642
2022-08-18T07:49:12.374Z,697
2022-08-18T07:58:32.898Z,642
2022-08-18T08:06:19.054Z,760
2022-08-18T08:14:26.886Z,720
2022-08-18T08:22:27.328Z,690
2022-08-18T08:30:05.579Z,665
2022-08-18T08:39:13.463Z,669
2022-08-18T08:46:44.643Z,703
2022-08-18T08:54:33.296Z,651
2022-08-18T09:02:37.795Z,578
2022-08-18T09:10:59.726Z,602
2022-08-18T09:18:41.761Z,655
2022-08-18T09:26:22.571Z,602
2022-08-18T09:34:29.523Z,648
